createdAt,value
2023-02-09T14:30:17.445Z,22.00
2023-02-09T14:33:51.164Z,17.10
2023-02-09T14:37:31.621Z,19.30
2023-02-09T14:49:59.946Z,17.00
2023-02-09T14:53:22.030Z,20.10
2023-02-09T14:56:49.165Z,20.50
2023-02-09T15:00:05.075Z,20.10
2023-02-09T15:03:43.299Z,15.30
2023-02-09T15:07:26.679Z,20.40
2023-02-09T15:11:42.760Z,20.60
2023-02-09T15:15:17.029Z,23.70
2023-02-09T15:19:03.262Z,23.40
2023-02-09T15:30:51.272Z,21.90
2023-02-09T15:33:57.500Z,24.70
2023-02-09T15:37:03.110Z,20.20
2023-02-09T15:40:15.438Z,23.20
2023-02-09T15:43:46.196Z,22.40
2023-02-09T15:47:13.658Z,27.20
2023-02-09T15:50:18.366Z,25.00
2023-02-09T15:53:22.779Z,22.30
2023-02-09T15:56:53.079Z,23.30
2023-02-09T16:01:35.091Z,30.60
2023-02-09T16:05:09.821Z,27.20
2023-02-09T16:08:53.484Z,25.70
2023-02-09T16:17:23.677Z,24.30
2023-02-09T16:25:29.366Z,28.00
2023-02-09T16:45:33.099Z,36.60
2023-02-09T16:49:25.089Z,33.20
2023-02-09T16:52:39.363Z,33.50
2023-02-09T16:56:00.755Z,37.30
2023-02-09T16:59:31.249Z,31.40
2023-02-09T17:03:31.200Z,31.60
2023-02-09T17:06:40.048Z,28.40
2023-02-09T17:10:05.214Z,29.90
2023-02-09T17:13:10.065Z,29.60
2023-02-09T17:17:38.430Z,36.10
2023-02-09T17:26:53.222Z,33.40
2023-02-09T17:38:56.349Z,19.40
2023-02-09T17:42:19.989Z,20.20
2023-02-09T17:47:05.547Z,19.50
2023-02-09T17:50:17.372Z,25.70
2023-02-09T17:54:29.026Z,20.90
2023-02-09T17:58:57.373Z,21.20
2023-02-09T18:02:19.309Z,17.90
2023-02-09T18:05:27.866Z,22.80
2023-02-09T18:08:30.832Z,23.00
2023-02-09T18:21:40.273Z,21.80
2023-02-09T18:24:48.917Z,18.30
2023-02-09T18:27:58.641Z,16.00
2023-02-09T18:35:45.769Z,22.30
2023-02-09T18:39:23.947Z,23.70
2023-02-09T18:42:31.273Z,25.50
2023-02-09T18:45:42.180Z,24.60
2023-02-09T18:48:47.410Z,26.10
2023-02-09T18:52:00.210Z,25.00
2023-02-09T18:55:07.691Z,27.90
2023-02-09T18:58:13.144Z,29.40
2023-02-09T19:01:22.601Z,26.40
2023-02-09T19:04:34.689Z,28.60
2023-02-09T19:07:43.687Z,25.30
2023-02-09T19:11:20.303Z,22.10
2023-02-09T19:17:50.989Z,29.30
2023-02-09T19:21:24.624Z,25.90
2023-02-09T19:24:53.326Z,24.00
2023-02-09T19:32:32.310Z,29.80
2023-02-09T19:35:40.923Z,26.30
2023-02-09T19:38:49.505Z,24.70
2023-02-09T19:46:59.048Z,26.20
2023-02-09T19:50:10.417Z,26.80
2023-02-09T19:54:03.081Z,27.90
2023-02-09T19:57:09.513Z,28.80
2023-02-09T20:00:45.950Z,31.20
2023-02-09T20:05:08.791Z,30.60
2023-02-09T20:13:43.254Z,32.70
2023-02-09T20:16:56.716Z,48.60
2023-02-09T20:20:03.752Z,26.90
2023-02-09T20:23:15.143Z,29.30
